createdAt,value
2023-04-02T00:02:25.000Z,27.15
2023-04-02T00:07:25.000Z,27.1
2023-04-02T00:12:25.000Z,27.8
2023-04-02T00:17:25.000Z,28.05
2023-04-02T00:22:25.000Z,27.92
2023-04-02T00:27:25.000Z,29.48
2023-04-02T00:32:26.000Z,30.28
2023-04-02T00:37:26.000Z,30.55
2023-04-02T00:42:25.000Z,30.61
2023-04-02T00:47:25.000Z,30.4
2023-04-02T00:52:26.000Z,30.86
2023-04-02T00:57:25.000Z,32.01
2023-04-02T01:02:25.000Z,31.89
2023-04-02T01:07:25.000Z,31.94
2023-04-02T01:12:26.000Z,31.81
2023-04-02T01:17:25.000Z,32.06
2023-04-02T01:22:25.000Z,32.69
2023-04-02T01:27:25.000Z,32.15
2023-04-02T01:32:26.000Z,32.57
2023-04-02T01:37:25.000Z,32.58
2023-04-02T01:42:25.000Z,32.09
2023-04-02T01:47:26.000Z,31.8
2023-04-02T01:52:26.000Z,32.25
2023-04-02T01:57:25.000Z,33.09
2023-04-02T02:02:25.000Z,33.32
2023-04-02T02:07:25.000Z,32.54
2023-04-02T02:12:26.000Z,32.49
2023-04-02T02:17:25.000Z,33.25
2023-04-02T02:22:25.000Z,32.29
2023-04-02T02:27:25.000Z,32.06
2023-04-02T02:32:26.000Z,31.04
2023-04-02T02:37:25.000Z,32.07
2023-04-02T02:42:26.000Z,32.09
2023-04-02T02:47:25.000Z,31.12
2023-04-02T02:52:25.000Z,29.81
2023-04-02T02:57:26.000Z,30.06
2023-04-02T03:02:26.000Z,29.99
2023-04-02T03:07:25.000Z,31.47
2023-04-02T03:12:25.000Z,30.29
2023-04-02T03:17:25.000Z,31.01
2023-04-02T03:22:25.000Z,30.57
2023-04-02T03:27:26.000Z,31.19
2023-04-02T03:32:25.000Z,30.98
2023-04-02T03:37:25.000Z,30.29
2023-04-02T03:42:25.000Z,30.26
2023-04-02T03:47:25.000Z,29.11
2023-04-02T03:52:25.000Z,29.96
2023-04-02T03:57:25.000Z,28.99
2023-04-02T04:02:26.000Z,27.53
2023-04-02T04:07:26.000Z,27.24
2023-04-02T04:12:25.000Z,27.18
2023-04-02T04:17:25.000Z,25.56
2023-04-02T04:22:25.000Z,24.67
2023-04-02T04:27:25.000Z,24.46
2023-04-02T04:32:25.000Z,24.43
2023-04-02T04:37:25.000Z,23.19
2023-04-02T04:42:25.000Z,21.79
2023-04-02T04:47:25.000Z,21.78
2023-04-02T04:52:25.000Z,22.59
2023-04-02T04:57:25.000Z,21.44
2023-04-02T05:02:25.000Z,21.66
2023-04-02T05:07:25.000Z,20.82
2023-04-02T05:12:25.000Z,21.62
2023-04-02T05:17:26.000Z,20.94
2023-04-02T05:22:25.000Z,20.67
2023-04-02T05:27:25.000Z,20.4
2023-04-02T05:32:25.000Z,21.03
2023-04-02T05:37:25.000Z,20.65
2023-04-02T05:42:26.000Z,20.93
2023-04-02T05:47:25.000Z,21.16
2023-04-02T05:52:25.000Z,20.92
2023-04-02T05:57:25.000Z,21.05
2023-04-02T06:02:25.000Z,20.54
2023-04-02T06:07:25.000Z,20.08
2023-04-02T06:12:25.000Z,21
2023-04-02T06:17:26.000Z,21.09
2023-04-02T06:22:25.000Z,21.82
2023-04-02T06:27:25.000Z,22.22
2023-04-02T06:32:25.000Z,22.28
2023-04-02T06:37:25.000Z,22.39
2023-04-02T06:42:25.000Z,22.14
2023-04-02T06:47:25.000Z,21.33
2023-04-02T06:52:25.000Z,21.08
2023-04-02T06:57:25.000Z,19.87
2023-04-02T07:02:25.000Z,19.98
2023-04-02T07:07:25.000Z,19.12
2023-04-02T07:12:25.000Z,19.44
2023-04-02T07:17:25.000Z,18.02
2023-04-02T07:22:24.000Z,18.51
2023-04-02T07:27:25.000Z,18.75
2023-04-02T07:32:25.000Z,18.79
2023-04-02T07:37:25.000Z,19.16
2023-04-02T07:42:26.000Z,18.22
2023-04-02T07:47:25.000Z,19.43
2023-04-02T07:52:25.000Z,18.2
2023-04-02T07:57:26.000Z,18.47
2023-04-02T08:02:25.000Z,17.68
2023-04-02T08:07:24.000Z,17.74
2023-04-02T08:12:25.000Z,17.4
2023-04-02T08:17:25.000Z,17.16
2023-04-02T08:22:25.000Z,17.24
2023-04-02T08:27:25.000Z,17.06
2023-04-02T08:32:25.000Z,17.82
2023-04-02T08:37:25.000Z,17.09
2023-04-02T08:42:25.000Z,17.55
2023-04-02T08:47:25.000Z,17.84
2023-04-02T08:52:25.000Z,17.8
2023-04-02T08:57:26.000Z,17.23
2023-04-02T09:02:26.000Z,16.13
2023-04-02T09:07:25.000Z,15.91
2023-04-02T09:12:24.000Z,15.95
2023-04-02T09:17:25.000Z,14.67
2023-04-02T09:22:26.000Z,15.85
2023-04-02T09:27:26.000Z,15.78
2023-04-02T09:32:26.000Z,14.46
2023-04-02T09:37:25.000Z,14.23
2023-04-02T09:42:25.000Z,14.78
2023-04-02T09:47:26.000Z,13.91
2023-04-02T09:52:26.000Z,14.08
2023-04-02T09:57:25.000Z,14.16
2023-04-02T10:02:25.000Z,14
2023-04-02T10:07:25.000Z,13.39
2023-04-02T10:12:26.000Z,12.49
2023-04-02T10:17:25.000Z,13.8
2023-04-02T10:22:26.000Z,13.22
2023-04-02T10:27:25.000Z,14.09
2023-04-02T10:32:25.000Z,14.07
2023-04-02T10:37:26.000Z,14.45
2023-04-02T10:42:25.000Z,14.08
2023-04-02T10:47:25.000Z,13.28
2023-04-02T10:52:25.000Z,13.58
2023-04-02T10:57:25.000Z,13.61
2023-04-02T11:02:26.000Z,12.97
2023-04-02T11:07:25.000Z,14.1
2023-04-02T11:12:25.000Z,14.13
2023-04-02T11:17:25.000Z,14
2023-04-02T11:22:25.000Z,14.68
2023-04-02T11:27:26.000Z,14.77
2023-04-02T11:32:25.000Z,15.21
2023-04-02T11:37:26.000Z,15.38
2023-04-02T11:42:25.000Z,16.2
2023-04-02T11:47:26.000Z,14.24
2023-04-02T11:52:25.000Z,15.29
2023-04-02T11:57:25.000Z,14.92
2023-04-02T12:02:25.000Z,15.19
2023-04-02T12:07:26.000Z,14.5
2023-04-02T12:12:25.000Z,15.16
2023-04-02T12:17:25.000Z,15.21
2023-04-02T12:22:25.000Z,16.03
2023-04-02T12:27:25.000Z,16.02
2023-04-02T12:32:25.000Z,15.62
2023-04-02T12:37:25.000Z,15.71
2023-04-02T12:42:25.000Z,16.92
2023-04-02T12:47:25.000Z,15.63
2023-04-02T12:52:26.000Z,17.11
2023-04-02T12:57:26.000Z,17.42
2023-04-02T13:02:25.000Z,18.7
2023-04-02T13:07:25.000Z,18.58
2023-04-02T13:12:26.000Z,18.43
2023-04-02T13:17:25.000Z,19.32
2023-04-02T13:22:26.000Z,18.56
2023-04-02T13:27:26.000Z,17.1
2023-04-02T13:32:25.000Z,17.59
2023-04-02T13:37:25.000Z,17.48
2023-04-02T13:42:25.000Z,15.98
2023-04-02T13:47:25.000Z,16.3
2023-04-02T13:52:25.000Z,17.19
2023-04-02T13:57:25.000Z,16.72
2023-04-02T14:02:25.000Z,14.98
2023-04-02T14:07:25.000Z,14.4
2023-04-02T14:12:25.000Z,14.31
2023-04-02T14:17:24.000Z,13.78
2023-04-02T14:22:25.000Z,14.16
2023-04-02T14:27:25.000Z,14.15
2023-04-02T14:32:25.000Z,13.26
2023-04-02T14:37:25.000Z,14.28
2023-04-02T14:42:26.000Z,13.55
2023-04-02T14:47:25.000Z,13.63
2023-04-02T14:52:26.000Z,13.64
2023-04-02T14:57:25.000Z,13.45
2023-04-02T15:02:25.000Z,14.04
2023-04-02T15:07:25.000Z,15.17
2023-04-02T15:12:25.000Z,16.48
2023-04-02T15:17:25.000Z,17.59
2023-04-02T15:22:25.000Z,14.74
2023-04-02T15:27:25.000Z,14.09
2023-04-02T15:32:25.000Z,13.76
2023-04-02T15:37:25.000Z,13.88
2023-04-02T15:42:25.000Z,12.94
2023-04-02T15:47:25.000Z,13.1
2023-04-02T15:52:25.000Z,12.99
2023-04-02T15:57:25.000Z,13.7
2023-04-02T16:02:25.000Z,14.7
2023-04-02T16:07:25.000Z,14.59
2023-04-02T16:12:25.000Z,15.15
2023-04-02T16:17:25.000Z,14.4
2023-04-02T16:22:25.000Z,17.53
2023-04-02T16:27:25.000Z,16.72
2023-04-02T16:32:25.000Z,17.11
2023-04-02T16:37:25.000Z,12.47
2023-04-02T16:42:25.000Z,11.81
2023-04-02T16:47:26.000Z,11.81
2023-04-02T16:52:25.000Z,11.13
2023-04-02T16:57:26.000Z,10.98
2023-04-02T17:02:25.000Z,10.58
2023-04-02T17:07:26.000Z,11.36
2023-04-02T17:12:26.000Z,11.88
2023-04-02T17:17:25.000Z,12.3
2023-04-02T17:22:25.000Z,12.86
2023-04-02T17:27:25.000Z,11.72
2023-04-02T17:32:26.000Z,10.66
2023-04-02T17:37:25.000Z,10.66
2023-04-02T17:42:25.000Z,10.16
2023-04-02T17:47:26.000Z,10.39
2023-04-02T17:52:25.000Z,10.92
2023-04-02T17:57:25.000Z,10.45
2023-04-02T18:02:25.000Z,10.17
2023-04-02T18:07:25.000Z,10.6
2023-04-02T18:12:26.000Z,10.14
2023-04-02T18:17:25.000Z,10.3
2023-04-02T18:22:25.000Z,10.45
2023-04-02T18:27:26.000Z,10.35
2023-04-02T18:32:25.000Z,10.35
2023-04-02T18:37:25.000Z,10.22
2023-04-02T18:42:25.000Z,10.37
2023-04-02T18:47:25.000Z,10.36
2023-04-02T18:52:26.000Z,10.53
2023-04-02T18:57:26.000Z,10.29
2023-04-02T19:02:25.000Z,10
2023-04-02T19:07:26.000Z,10.59
2023-04-02T19:12:25.000Z,9.98
2023-04-02T19:17:25.000Z,10.45
2023-04-02T19:22:25.000Z,9.97
2023-04-02T19:27:26.000Z,10.16
2023-04-02T19:32:25.000Z,9.73
2023-04-02T19:37:26.000Z,9.8
2023-04-02T19:42:25.000Z,10.07
2023-04-02T19:47:25.000Z,10.47
2023-04-02T19:52:25.000Z,10.25
2023-04-02T19:57:25.000Z,10.67
2023-04-02T20:02:26.000Z,10.48
2023-04-02T20:07:25.000Z,10.45
2023-04-02T20:12:25.000Z,10.46
2023-04-02T20:17:25.000Z,11.4
2023-04-02T20:22:25.000Z,10.64
2023-04-02T20:27:25.000Z,10.34
2023-04-02T20:32:25.000Z,10.31
2023-04-02T20:37:25.000Z,10.51
2023-04-02T20:42:25.000Z,10.56
2023-04-02T20:47:26.000Z,11.33
2023-04-02T20:52:25.000Z,11.97
2023-04-02T20:57:26.000Z,10.93
2023-04-02T21:02:25.000Z,11.4
2023-04-02T21:07:25.000Z,11.72
2023-04-02T21:12:25.000Z,11.16
2023-04-02T21:17:25.000Z,11.49
2023-04-02T21:22:25.000Z,11.79
2023-04-02T21:27:25.000Z,11.57
2023-04-02T21:32:26.000Z,11.62
2023-04-02T21:37:25.000Z,11.79
2023-04-02T21:42:26.000Z,11.27
2023-04-02T21:47:25.000Z,11.45
2023-04-02T21:52:25.000Z,11.88
2023-04-02T21:57:25.000Z,11.38
2023-04-02T22:02:26.000Z,12.04
2023-04-02T22:07:25.000Z,11.93
2023-04-02T22:12:25.000Z,12.16
2023-04-02T22:17:25.000Z,12.25
2023-04-02T22:22:25.000Z,12.28
2023-04-02T22:27:26.000Z,12.09
2023-04-02T22:32:25.000Z,12.26
2023-04-02T22:37:25.000Z,12.76
2023-04-02T22:42:25.000Z,13.11
2023-04-02T22:47:25.000Z,12.84
2023-04-02T22:52:26.000Z,13.12
2023-04-02T22:57:24.000Z,12.76
2023-04-02T23:02:25.000Z,13.2
2023-04-02T23:07:25.000Z,13.25
2023-04-02T23:12:26.000Z,13.03
2023-04-02T23:17:26.000Z,13.42
2023-04-02T23:22:25.000Z,13.33
2023-04-02T23:27:25.000Z,12.91
2023-04-02T23:32:25.000Z,12.93
2023-04-02T23:37:25.000Z,14.17
2023-04-02T23:42:25.000Z,13.99
2023-04-02T23:47:26.000Z,14.87
2023-04-02T23:52:25.000Z,14.01
2023-04-02T23:57:25.000Z,13.72
